Time;durP1;ratioP1;P1;durP2;ratioP2;P2;SDS_P1;SDS_P2;PMS_P1;PMS_P2;Temp;Humidity;BMP_temperature;BMP_pressure;BME280_temperature;BME280_humidity;BME280_pressure;Samples;Min_cycle;Max_cycle;Signal;HPM_P1;HPM_P2
2022/08/25 00:00:20;;;;;;;18.85;10.82;;;28.90;70.20;;;;;;4976695;28;20473;-83
2022/08/25 00:02:46;;;;;;;20.80;12.90;;;29.00;70.20;;;;;;4975915;28;20066;-85
2022/08/25 00:05:12;;;;;;;23.67;12.05;;;28.90;70.50;;;;;;4993979;28;20027;-84
2022/08/25 00:07:38;;;;;;;16.73;11.00;;;28.90;70.50;;;;;;4976639;28;20076;-86
2022/08/25 00:10:05;;;;;;;16.38;12.35;;;28.90;70.80;;;;;;4992328;28;20478;-82
2022/08/25 00:12:30;;;;;;;18.45;12.82;;;28.80;70.60;;;;;;4976365;28;20084;-85
2022/08/25 00:14:56;;;;;;;17.90;12.65;;;28.90;70.30;;;;;;4993490;28;20054;-82
2022/08/25 00:17:22;;;;;;;16.95;12.00;;;28.80;70.80;;;;;;4976196;28;20026;-83
2022/08/25 00:19:48;;;;;;;15.27;11.25;;;28.70;71.40;;;;;;4976069;28;20023;-81
2022/08/25 00:22:14;;;;;;;13.85;9.63;;;28.70;71.30;;;;;;4976386;28;20389;-87
2022/08/25 00:24:40;;;;;;;17.45;11.40;;;28.80;70.60;;;;;;4993592;28;20026;-81
2022/08/25 00:27:05;;;;;;;21.13;12.55;;;28.70;71.10;;;;;;4994749;28;20041;-84
2022/08/25 00:29:32;;;;;;;20.63;12.85;;;28.80;70.60;;;;;;4979939;28;20433;-86
2022/08/25 00:31:59;;;;;;;28.60;13.15;;;28.90;70.30;;;;;;4979865;28;20033;-82
2022/08/25 00:34:32;;;;;;;16.75;11.32;;;29.00;70.20;;;;;;4979548;28;20113;-82
2022/08/25 00:37:00;;;;;;;20.13;12.30;;;29.10;69.80;;;;;;4979983;28;20026;-91
2022/08/25 00:39:26;;;;;;;19.35;11.00;;;29.10;69.70;;;;;;4979786;28;20077;-82
2022/08/25 00:41:55;;;;;;;26.20;14.13;;;29.00;70.10;;;;;;4979907;28;20471;-89
2022/08/25 00:44:22;;;;;;;26.52;13.80;;;28.80;70.90;;;;;;4980075;28;20062;-92
2022/08/25 00:46:52;;;;;;;16.85;10.85;;;28.80;70.70;;;;;;4998099;28;20026;-82
2022/08/25 00:49:39;;;;;;;17.95;12.27;;;28.90;70.20;;;;;;4995926;28;20022;-83
2022/08/25 00:52:15;;;;;;;17.73;11.52;;;28.90;70.20;;;;;;4996707;28;20089;-82
2022/08/25 00:54:46;;;;;;;25.00;14.88;;;28.90;70.00;;;;;;4995561;28;20327;-94
2022/08/25 00:57:15;;;;;;;19.30;12.00;;;29.00;70.00;;;;;;4980095;28;20104;-82
2022/08/25 00:59:43;;;;;;;33.75;26.50;;;28.80;70.50;;;;;;4979752;28;20065;-83
2022/08/25 01:02:10;;;;;;;19.75;11.35;;;28.80;70.40;;;;;;4996991;28;20037;-83
2022/08/25 01:04:36;;;;;;;19.15;12.00;;;28.80;70.30;;;;;;4997222;28;20030;-84
2022/08/25 01:07:03;;;;;;;20.88;11.35;;;28.80;70.30;;;;;;4996608;28;20441;-83
2022/08/25 01:09:31;;;;;;;20.13;10.40;;;28.80;70.20;;;;;;4979279;28;20031;-83
2022/08/25 01:11:58;;;;;;;20.15;13.05;;;28.80;70.20;;;;;;4979184;28;20050;-82
2022/08/25 01:14:25;;;;;;;21.55;12.40;;;28.90;70.10;;;;;;4996534;28;20037;-84
2022/08/25 01:16:52;;;;;;;20.80;11.32;;;28.90;70.10;;;;;;4978962;28;20050;-81
2022/08/25 01:19:19;;;;;;;24.10;10.32;;;29.00;70.00;;;;;;4979028;28;20474;-82
2022/08/25 01:21:48;;;;;;;23.33;12.43;;;29.00;69.90;;;;;;4996151;28;20019;-82
2022/08/25 01:24:57;;;;;;;21.45;12.52;;;29.00;69.70;;;;;;4996352;28;20045;-82
2022/08/25 01:27:22;;;;;;;23.42;12.57;;;29.00;69.50;;;;;;4996083;28;20052;-81
2022/08/25 01:29:48;;;;;;;17.98;11.80;;;28.90;69.40;;;;;;4994891;28;20478;-83
2022/08/25 01:32:14;;;;;;;24.65;11.30;;;28.90;69.50;;;;;;4978600;28;20038;-82
2022/08/25 01:34:42;;;;;;;18.65;11.73;;;28.90;69.70;;;;;;4978645;28;20046;-82
2022/08/25 01:37:10;;;;;;;20.67;11.95;;;28.80;69.80;;;;;;4978916;28;20026;-83
2022/08/25 01:39:36;;;;;;;22.23;11.30;;;28.90;69.50;;;;;;4994959;28;20022;-83
2022/08/25 01:42:01;;;;;;;20.35;12.45;;;28.90;69.30;;;;;;4996237;28;20022;-83
2022/08/25 01:44:28;;;;;;;15.38;9.38;;;29.00;69.10;;;;;;4978632;28;20034;-81
2022/08/25 01:46:53;;;;;;;20.13;12.23;;;28.70;69.50;;;;;;4995109;28;20023;-81
2022/08/25 01:49:20;;;;;;;18.65;12.23;;;28.30;70.90;;;;;;4978650;28;20033;-92
2022/08/25 01:51:59;;;;;;;19.25;11.52;;;28.30;71.00;;;;;;4995697;28;20111;-82
2022/08/25 01:54:25;;;;;;;17.27;9.40;;;28.50;70.30;;;;;;4996014;28;20026;-82
2022/08/25 01:56:51;;;;;;;15.80;9.70;;;28.50;70.00;;;;;;4995108;28;20080;-91
2022/08/25 01:59:19;;;;;;;15.23;10.88;;;28.10;71.10;;;;;;4995680;28;20037;-82
2022/08/25 02:01:45;;;;;;;14.80;9.02;;;28.00;71.90;;;;;;4995573;28;20481;-82
2022/08/25 02:04:11;;;;;;;19.98;10.25;;;27.90;71.70;;;;;;4995629;28;20065;-84
2022/08/25 02:06:37;;;;;;;21.90;10.65;;;27.90;71.70;;;;;;4977879;28;20022;-82
2022/08/25 02:09:14;;;;;;;23.20;12.73;;;27.90;71.50;;;;;;4995384;28;20025;-81
2022/08/25 02:11:42;;;;;;;17.77;11.10;;;28.00;71.10;;;;;;4995541;28;20467;-84
2022/08/25 02:14:10;;;;;;;18.25;10.27;;;28.20;70.50;;;;;;4977866;28;20038;-83
2022/08/25 02:16:37;;;;;;;14.70;9.00;;;28.20;70.90;;;;;;4978130;28;20077;-82
2022/08/25 02:19:07;;;;;;;18.88;9.85;;;28.10;71.20;;;;;;4995058;28;20089;-88
2022/08/25 02:21:34;;;;;;;25.83;14.10;;;27.90;71.40;;;;;;4995138;28;20359;-83
2022/08/25 02:24:00;;;;;;;18.25;9.50;;;28.10;71.30;;;;;;4977811;28;20034;-83
2022/08/25 02:26:26;;;;;;;17.30;11.10;;;27.90;71.70;;;;;;4993783;28;20536;-81
2022/08/25 02:28:52;;;;;;;18.17;11.10;;;27.80;72.20;;;;;;4995274;28;20034;-82
2022/08/25 02:31:21;;;;;;;21.15;9.80;;;27.80;71.60;;;;;;4977490;28;20054;-82
2022/08/25 02:33:47;;;;;;;15.52;10.57;;;28.10;70.90;;;;;;4977591;28;20023;-83
2022/08/25 02:36:13;;;;;;;22.20;11.98;;;28.10;70.60;;;;;;4995088;28;20114;-83
2022/08/25 02:38:39;;;;;;;20.27;11.85;;;28.30;70.20;;;;;;4977289;28;20388;-82
2022/08/25 02:41:15;;;;;;;15.02;10.45;;;28.40;70.10;;;;;;4993659;28;20034;-81
2022/08/25 02:43:42;;;;;;;18.65;10.00;;;28.40;69.40;;;;;;4994275;28;20081;-82
2022/08/25 02:46:10;;;;;;;20.20;11.48;;;28.50;69.30;;;;;;4994696;28;20095;-83
2022/08/25 02:48:37;;;;;;;16.25;8.70;;;28.50;69.20;;;;;;4977227;28;20058;-82
2022/08/25 02:51:05;;;;;;;14.15;9.85;;;28.40;69.50;;;;;;4994373;28;20023;-82
2022/08/25 02:53:33;;;;;;;15.13;10.95;;;27.90;71.60;;;;;;4993345;28;20049;-81
2022/08/25 02:55:59;;;;;;;19.50;10.95;;;27.70;71.80;;;;;;4977109;28;20090;-82
2022/08/25 02:58:24;;;;;;;21.45;12.50;;;27.60;72.30;;;;;;4994394;28;20033;-81
2022/08/25 03:00:50;;;;;;;22.90;11.27;;;27.70;71.60;;;;;;4977073;28;20026;-81
2022/08/25 03:03:16;;;;;;;16.83;11.60;;;27.90;71.00;;;;;;4976702;28;20034;-82
2022/08/25 03:05:42;;;;;;;18.60;10.13;;;28.00;70.40;;;;;;4977097;28;20092;-82
2022/08/25 03:08:08;;;;;;;18.23;12.05;;;28.00;70.70;;;;;;4977042;28;20438;-80
2022/08/25 03:10:35;;;;;;;18.77;11.63;;;27.80;70.60;;;;;;4994106;28;20036;-81
2022/08/25 03:13:00;;;;;;;21.60;13.15;;;27.90;70.10;;;;;;4976554;28;20030;-81
2022/08/25 03:15:27;;;;;;;17.75;10.85;;;27.90;70.20;;;;;;4993663;28;20050;-81
2022/08/25 03:17:54;;;;;;;22.23;13.38;;;28.00;70.20;;;;;;4976900;28;20488;-82
2022/08/25 03:20:22;;;;;;;15.70;10.77;;;28.00;70.20;;;;;;4994063;28;20073;-82
2022/08/25 03:22:48;;;;;;;17.02;11.57;;;28.10;69.60;;;;;;4976361;28;20034;-82
2022/08/25 03:27:58;;;;;;;18.27;11.90;;;28.10;69.20;;;;;;4994428;28;20512;-81
2022/08/25 03:30:25;;;;;;;21.90;12.38;;;27.90;70.70;;;;;;4993984;28;20026;-83
2022/08/25 03:32:51;;;;;;;24.65;12.68;;;27.70;71.10;;;;;;4993885;28;20478;-81
2022/08/25 03:35:16;;;;;;;14.82;11.10;;;27.80;70.60;;;;;;4993909;28;20027;-81
2022/08/25 03:37:42;;;;;;;20.27;12.23;;;27.80;70.60;;;;;;4993932;28;20393;-81
2022/08/25 03:40:11;;;;;;;17.85;11.07;;;27.60;71.30;;;;;;4993873;28;20054;-81
2022/08/25 03:42:44;;;;;;;19.80;13.23;;;27.70;71.00;;;;;;4975790;28;20061;-81
2022/08/25 03:45:10;;;;;;;17.83;11.75;;;27.80;70.30;;;;;;4976140;28;20041;-81
2022/08/25 03:47:37;;;;;;;24.60;12.88;;;27.90;69.80;;;;;;4993810;28;20018;-83
2022/08/25 03:50:05;;;;;;;18.40;11.52;;;28.00;69.50;;;;;;4976186;28;20022;-82
2022/08/25 03:52:31;;;;;;;13.75;10.57;;;27.80;70.30;;;;;;4976398;28;20053;-81
2022/08/25 03:54:56;;;;;;;24.25;12.93;;;27.80;70.30;;;;;;4993858;28;20035;-82
2022/08/25 03:57:22;;;;;;;24.83;13.18;;;27.60;71.50;;;;;;4976206;28;20470;-81
2022/08/25 03:59:48;;;;;;;21.75;12.65;;;27.60;70.90;;;;;;4976343;28;20022;-82
2022/08/25 04:02:13;;;;;;;22.92;12.43;;;27.70;70.30;;;;;;4995289;28;20439;-81
2022/08/25 04:04:39;;;;;;;18.25;11.32;;;27.90;70.00;;;;;;4997430;28;20426;-81
2022/08/25 04:07:05;;;;;;;16.67;11.48;;;28.00;69.80;;;;;;4980072;28;20397;-81
2022/08/25 04:09:31;;;;;;;21.98;13.35;;;27.80;70.60;;;;;;4997684;28;20041;-81
2022/08/25 04:11:57;;;;;;;18.17;12.00;;;27.90;70.10;;;;;;4980330;28;20389;-81
2022/08/25 04:14:23;;;;;;;20.17;12.27;;;28.10;69.80;;;;;;4979838;28;20512;-80
2022/08/25 04:16:49;;;;;;;21.38;11.95;;;28.10;69.40;;;;;;4979706;28;20042;-81
2022/08/25 04:19:15;;;;;;;20.20;12.25;;;28.20;69.40;;;;;;4979612;28;20026;-82
2022/08/25 04:21:41;;;;;;;19.25;12.27;;;28.20;69.30;;;;;;4979781;28;20077;-82
2022/08/25 04:24:09;;;;;;;19.17;11.80;;;28.20;69.60;;;;;;4997248;28;20113;-81
2022/08/25 04:26:41;;;;;;;19.33;11.65;;;28.30;69.30;;;;;;4979609;28;20057;-81
2022/08/25 04:29:09;;;;;;;22.30;12.82;;;28.30;69.30;;;;;;4997141;28;20061;-82
2022/08/25 04:31:37;;;;;;;23.02;14.07;;;28.20;69.40;;;;;;4979901;28;20073;-81
2022/08/25 04:34:05;;;;;;;18.88;11.65;;;28.20;69.30;;;;;;4997207;28;20058;-81
2022/08/25 04:36:31;;;;;;;21.42;11.98;;;28.10;69.80;;;;;;4979763;28;20026;-81
2022/08/25 04:38:57;;;;;;;22.75;12.98;;;27.80;70.90;;;;;;4997171;28;20026;-84
2022/08/25 04:41:24;;;;;;;22.35;13.15;;;27.80;71.10;;;;;;4997129;28;20029;-82
2022/08/25 04:43:51;;;;;;;21.73;12.23;;;28.00;70.50;;;;;;4979987;28;20038;-82
2022/08/25 04:46:23;;;;;;;22.20;12.55;;;28.00;70.40;;;;;;4979495;28;20033;-81
2022/08/25 04:48:50;;;;;;;16.80;11.32;;;28.10;70.30;;;;;;4996713;28;20050;-82
2022/08/25 04:51:22;;;;;;;18.13;11.95;;;28.10;70.50;;;;;;4997249;28;20026;-81
2022/08/25 04:53:49;;;;;;;20.58;13.27;;;28.10;70.60;;;;;;4979461;28;20073;-82
2022/08/25 04:56:17;;;;;;;15.75;10.10;;;28.20;70.50;;;;;;4979340;28;20084;-83
2022/08/25 04:58:45;;;;;;;25.30;12.85;;;28.20;70.10;;;;;;4979274;28;20027;-81
2022/08/25 05:01:17;;;;;;;22.15;13.05;;;28.00;71.60;;;;;;4996787;28;20033;-83
2022/08/25 05:03:45;;;;;;;19.77;12.35;;;28.10;70.90;;;;;;4978906;28;20396;-82
2022/08/25 05:06:11;;;;;;;22.25;12.80;;;28.00;71.50;;;;;;4979358;28;20022;-81
2022/08/25 05:08:38;;;;;;;21.60;13.65;;;28.10;71.20;;;;;;4978929;28;20040;-81
2022/08/25 05:11:11;;;;;;;27.65;13.50;;;28.30;70.80;;;;;;4978880;28;20037;-81
2022/08/25 05:13:37;;;;;;;24.63;13.95;;;28.40;70.70;;;;;;4979037;28;20030;-81
2022/08/25 05:16:03;;;;;;;19.88;12.98;;;28.50;70.50;;;;;;4978550;28;20516;-81
2022/08/25 05:18:30;;;;;;;15.40;12.05;;;28.60;71.00;;;;;;4978633;28;20500;-81
2022/08/25 05:21:04;;;;;;;20.25;12.88;;;28.70;70.20;;;;;;4978642;28;20119;-83
2022/08/25 05:23:30;;;;;;;20.50;12.35;;;28.80;70.10;;;;;;4996115;28;20141;-81
2022/08/25 05:26:03;;;;;;;21.23;13.05;;;28.90;69.90;;;;;;4995653;28;20409;-81
2022/08/25 05:28:28;;;;;;;25.20;13.40;;;28.90;70.00;;;;;;4996174;28;20394;-80
2022/08/25 05:30:58;;;;;;;25.95;14.82;;;28.90;70.00;;;;;;4996015;28;20022;-85
2022/08/25 05:33:24;;;;;;;20.33;12.13;;;28.80;70.80;;;;;;4978663;28;20034;-83
2022/08/25 05:35:50;;;;;;;16.63;11.43;;;28.80;70.60;;;;;;4978602;28;20038;-82
2022/08/25 05:38:17;;;;;;;21.25;11.60;;;28.80;70.70;;;;;;4996086;28;20033;-83
2022/08/25 05:40:42;;;;;;;19.30;12.52;;;28.70;71.90;;;;;;4995997;28;20377;-87
2022/08/25 05:43:09;;;;;;;17.88;11.85;;;28.60;72.00;;;;;;4978287;28;20034;-86
2022/08/25 05:45:35;;;;;;;21.80;12.13;;;28.90;71.40;;;;;;4978612;28;20559;-90
2022/08/25 05:48:01;;;;;;;21.13;11.88;;;29.20;71.20;;;;;;4978139;28;20038;-79
2022/08/25 05:50:27;;;;;;;18.42;12.43;;;29.30;70.50;;;;;;4995438;28;20490;-79
2022/08/25 05:52:53;;;;;;;21.13;12.15;;;29.30;70.20;;;;;;4995245;28;20037;-79
2022/08/25 05:55:19;;;;;;;18.17;11.45;;;29.50;70.00;;;;;;4995157;28;20034;-79
2022/08/25 05:57:44;;;;;;;18.85;11.38;;;29.60;70.10;;;;;;4995085;28;20034;-80
2022/08/25 06:00:11;;;;;;;22.30;12.07;;;29.50;70.80;;;;;;4995052;28;20041;-79
2022/08/25 06:02:42;;;;;;;20.33;11.93;;;29.10;71.30;;;;;;4977762;28;20120;-84
2022/08/25 06:05:13;;;;;;;19.83;10.88;;;29.30;70.90;;;;;;4978490;28;20025;-90
2022/08/25 06:07:39;;;;;;;21.85;12.27;;;29.50;71.00;;;;;;4978108;28;20062;-85
2022/08/25 06:10:09;;;;;;;16.88;11.43;;;29.50;71.20;;;;;;4995437;28;20023;-85
2022/08/25 06:12:35;;;;;;;20.70;11.45;;;29.30;72.00;;;;;;4978721;28;20478;-82
2022/08/25 06:15:02;;;;;;;17.15;11.55;;;29.40;72.00;;;;;;4995576;28;20101;-91
2022/08/25 06:17:28;;;;;;;19.63;11.05;;;29.50;71.80;;;;;;4995061;28;20030;-86
2022/08/25 06:19:54;;;;;;;18.25;9.70;;;29.60;70.90;;;;;;4995177;28;20023;-89
2022/08/25 06:22:20;;;;;;;18.63;10.40;;;29.70;71.00;;;;;;4995108;28;20027;-86
2022/08/25 06:24:46;;;;;;;19.70;9.73;;;29.80;71.90;;;;;;4994637;28;20061;-84
2022/08/25 06:27:12;;;;;;;16.75;10.18;;;29.60;71.20;;;;;;4995465;28;20033;-83
2022/08/25 06:29:38;;;;;;;22.05;9.88;;;29.70;71.20;;;;;;4977819;28;20033;-89
2022/08/25 06:32:04;;;;;;;15.38;9.48;;;30.00;70.60;;;;;;4977957;28;20034;-93
2022/08/25 06:34:30;;;;;;;16.55;9.70;;;30.20;70.10;;;;;;4977505;28;20426;-80
2022/08/25 06:36:56;;;;;;;16.65;9.23;;;30.40;69.80;;;;;;4994833;28;20057;-81
2022/08/25 06:39:23;;;;;;;14.40;9.32;;;30.50;68.60;;;;;;4993603;28;20022;-81
2022/08/25 06:41:55;;;;;;;17.42;8.80;;;30.40;69.60;;;;;;4977422;28;20117;-84
2022/08/25 06:44:22;;;;;;;20.65;9.98;;;30.50;69.30;;;;;;4993597;28;20034;-82
2022/08/25 06:46:48;;;;;;;17.77;9.35;;;30.50;70.60;;;;;;4977112;28;20034;-88
2022/08/25 06:49:14;;;;;;;13.05;8.02;;;30.80;69.50;;;;;;4977139;28;20026;-85
2022/08/25 06:51:41;;;;;;;18.85;8.85;;;30.90;68.50;;;;;;4994054;28;20425;-85
2022/08/25 06:54:11;;;;;;;19.50;8.98;;;30.40;70.20;;;;;;4993918;28;20046;-85
2022/08/25 06:56:38;;;;;;;;;;;30.20;70.90;;;;;;4977946;28;20022;-86
2022/08/25 06:59:05;;;;;;;13.65;8.25;;;30.40;69.50;;;;;;4995016;28;20300;-87
2022/08/25 07:01:31;;;;;;;17.10;7.95;;;30.60;69.10;;;;;;4994898;28;20034;-87
2022/08/25 07:03:59;;;;;;;14.68;7.72;;;30.80;68.90;;;;;;4994777;28;20073;-91
2022/08/25 07:06:27;;;;;;;14.70;7.82;;;31.10;69.20;;;;;;4994889;28;20023;-89
2022/08/25 07:08:53;;;;;;;16.83;7.95;;;31.20;68.60;;;;;;4993826;28;20034;-87
2022/08/25 07:11:21;;;;;;;15.75;7.43;;;31.30;68.40;;;;;;4994823;28;20470;-89
2022/08/25 07:13:48;;;;;;;15.25;8.43;;;31.20;68.60;;;;;;4977400;28;20496;-85
2022/08/25 07:16:14;;;;;;;18.42;8.35;;;31.40;67.90;;;;;;4993156;28;20421;-87
2022/08/25 07:18:40;;;;;;;15.63;8.60;;;31.50;67.60;;;;;;4994418;28;20037;-86
2022/08/25 07:21:06;;;;;;;15.40;8.05;;;31.60;68.70;;;;;;4977197;28;20539;-86
2022/08/25 07:23:32;;;;;;;16.75;7.15;;;31.60;67.80;;;;;;4977055;28;20041;-84
2022/08/25 07:26:09;;;;;;;15.02;8.10;;;31.70;67.90;;;;;;4994234;28;20105;-89
2022/08/25 07:28:35;;;;;;;15.98;8.15;;;31.70;68.80;;;;;;4997284;28;20019;-88
2022/08/25 07:31:00;;;;;;;16.50;7.75;;;31.70;69.30;;;;;;4993163;28;20022;-85
2022/08/25 07:33:26;;;;;;;17.95;8.02;;;31.80;68.70;;;;;;4994372;28;20125;-85
2022/08/25 07:35:52;;;;;;;15.80;6.82;;;31.90;67.60;;;;;;4992907;28;20027;-88
2022/08/25 07:38:18;;;;;;;15.07;8.10;;;32.00;66.60;;;;;;4994003;28;20027;-85
2022/08/25 07:40:44;;;;;;;16.52;7.22;;;32.10;68.50;;;;;;4996843;28;20053;-91
2022/08/25 07:43:09;;;;;;;13.80;7.80;;;32.10;68.90;;;;;;4994687;28;20497;-85
2022/08/25 07:45:38;;;;;;;21.25;8.40;;;32.10;69.00;;;;;;4993935;28;20042;-86
2022/08/25 07:48:10;;;;;;;18.70;7.78;;;32.10;69.40;;;;;;4977163;28;20033;-88
2022/08/25 07:50:40;;;;;;;16.80;7.40;;;32.10;68.80;;;;;;4994898;28;20351;-93
2022/08/25 07:53:07;;;;;;;16.83;7.45;;;32.30;68.30;;;;;;4976865;28;20497;-89
2022/08/25 07:55:35;;;;;;;14.43;7.13;;;32.50;67.20;;;;;;4977142;28;20113;-89
2022/08/25 07:58:02;;;;;;;17.83;7.25;;;32.50;67.50;;;;;;4976942;28;20026;-89
2022/08/25 08:00:31;;;;;;;19.92;7.53;;;32.70;67.10;;;;;;4976781;28;20026;-87
2022/08/25 08:02:57;;;;;;;15.18;7.45;;;32.80;66.20;;;;;;4976593;28;20052;-86
2022/08/25 08:05:24;;;;;;;15.57;7.38;;;32.90;65.90;;;;;;4976881;28;20031;-84
2022/08/25 08:07:51;;;;;;;16.60;7.72;;;33.00;65.80;;;;;;4993810;28;20029;-88
2022/08/25 08:10:17;;;;;;;16.02;7.65;;;33.00;66.70;;;;;;4976745;28;20109;-83
2022/08/25 08:12:44;;;;;;;15.98;7.63;;;33.10;67.70;;;;;;4993895;28;20130;-88
2022/08/25 08:15:11;;;;;;;17.23;7.35;;;32.90;66.60;;;;;;4993131;28;20038;-84
2022/08/25 08:17:38;;;;;;;23.63;7.65;;;32.60;67.40;;;;;;4997122;28;20026;-82
2022/08/25 08:20:07;;;;;;;15.50;7.10;;;32.50;68.80;;;;;;4978160;28;20026;-80
2022/08/25 08:22:39;;;;;;;16.73;6.97;;;32.80;67.80;;;;;;4976990;28;20026;-91
2022/08/25 08:25:07;;;;;;;16.88;6.55;;;33.10;65.20;;;;;;4978484;28;20073;-85
2022/08/25 08:27:33;;;;;;;12.60;6.05;;;33.30;64.20;;;;;;4977410;28;20508;-80
2022/08/25 08:29:59;;;;;;;16.80;5.88;;;33.30;64.30;;;;;;4993346;28;20037;-82
2022/08/25 08:32:25;;;;;;;14.13;5.43;;;33.40;62.50;;;;;;4993752;28;20054;-80
2022/08/25 08:34:51;;;;;;;14.88;5.90;;;33.50;62.80;;;;;;4993805;28;20116;-83
2022/08/25 08:37:17;;;;;;;17.20;6.40;;;33.70;62.60;;;;;;4993615;28;20030;-83
2022/08/25 08:39:43;;;;;;;15.85;5.78;;;33.80;62.90;;;;;;4993896;28;20026;-85
2022/08/25 08:42:38;;;;;;;14.88;6.53;;;33.90;63.10;;;;;;4976369;28;20041;-86
2022/08/25 08:45:19;;;;;;;11.68;5.47;;;33.60;62.80;;;;;;4970967;28;20031;-82
2022/08/25 08:48:09;;;;;;;13.35;4.97;;;33.70;61.70;;;;;;4993231;28;20080;-82
2022/08/25 08:51:04;;;;;;;11.60;4.90;;;33.90;60.90;;;;;;4997273;28;20023;-82
2022/08/25 08:53:51;;;;;;;10.45;5.15;;;34.10;60.50;;;;;;4921290;29;20087;-85
2022/08/25 08:56:28;;;;;;;10.15;5.55;;;34.00;61.20;;;;;;4921146;29;20410;-83
2022/08/25 08:59:13;;;;;;;12.85;5.50;;;34.20;61.60;;;;;;4937191;29;20534;-86
2022/08/25 09:01:44;;;;;;;12.45;5.40;;;34.40;62.10;;;;;;4937096;29;20038;-90
2022/08/25 09:04:56;;;;;;;13.43;5.60;;;34.40;60.70;;;;;;4921429;29;20054;-86
2022/08/25 09:07:29;;;;;;;15.55;5.20;;;34.10;61.80;;;;;;4916864;29;20715;-85
2022/08/25 09:09:55;;;;;;;15.38;6.13;;;34.10;61.40;;;;;;4920879;29;20123;-83
2022/08/25 09:12:42;;;;;;;18.05;6.20;;;34.30;60.90;;;;;;4937045;29;20063;-85
2022/08/25 09:16:53;;;;;;;17.65;6.88;;;34.50;60.00;;;;;;4920675;29;20052;-83
2022/08/25 09:18:33;;;;;;;17.27;5.32;;;34.60;61.00;;;;;;4936694;29;20039;-91
2022/08/25 09:21:18;;;;;;;12.27;5.55;;;34.60;61.80;;;;;;4921748;29;20030;-87
2022/08/25 09:24:03;;;;;;;12.90;5.20;;;34.40;62.20;;;;;;4936799;29;20124;-84
2022/08/25 09:26:38;;;;;;;19.05;5.93;;;34.40;61.80;;;;;;4921141;29;20038;-87
2022/08/25 09:29:12;;;;;;;12.45;5.00;;;34.30;62.20;;;;;;4936879;29;20067;-84
2022/08/25 09:31:40;;;;;;;11.43;4.80;;;34.50;61.80;;;;;;4996832;28;20050;-87
2022/08/25 09:34:17;;;;;;;14.55;5.35;;;34.70;61.60;;;;;;4979227;28;20043;-86
2022/08/25 09:36:44;;;;;;;13.45;4.88;;;34.90;60.10;;;;;;4979102;28;20018;-87
2022/08/25 09:39:10;;;;;;;10.95;4.30;;;35.10;61.50;;;;;;4996474;28;20054;-82
2022/08/25 09:41:54;;;;;;;10.98;4.22;;;35.20;60.50;;;;;;4978998;28;20034;-87
2022/08/25 09:44:24;;;;;;;13.95;4.88;;;35.20;59.80;;;;;;4996332;28;20062;-87
2022/08/25 09:47:13;;;;;;;11.68;4.72;;;35.40;59.60;;;;;;4995502;28;20039;-85
2022/08/25 09:49:41;;;;;;;11.45;4.63;;;35.40;59.90;;;;;;4995272;28;20040;-84
2022/08/25 09:52:45;;;;;;;11.30;4.47;;;35.40;58.60;;;;;;4995124;28;20120;-87
2022/08/25 09:55:12;;;;;;;13.43;4.88;;;35.50;58.60;;;;;;4936109;29;20110;-83
2022/08/25 09:57:53;;;;;;;11.20;4.45;;;35.60;57.10;;;;;;4936261;29;20106;-83
2022/08/25 10:00:25;;;;;;;12.57;4.53;;;35.80;56.70;;;;;;4919521;29;20373;-84
2022/08/25 10:03:22;;;;;;;11.98;4.85;;;35.80;58.00;;;;;;4920595;29;20144;-85
2022/08/25 10:06:06;;;;;;;8.10;4.40;;;35.90;55.70;;;;;;4920139;29;20509;-84
2022/08/25 10:08:43;;;;;;;9.93;4.28;;;36.00;56.40;;;;;;4936158;29;20028;-84
2022/08/25 10:11:32;;;;;;;7.13;3.67;;;35.70;57.00;;;;;;4919956;29;20027;-85
2022/08/25 10:14:06;;;;;;;7.90;4.63;;;35.40;54.30;;;;;;4935190;29;20486;-84
2022/08/25 10:16:33;;;;;;;7.45;3.72;;;35.50;56.20;;;;;;4919489;29;20048;-83
2022/08/25 10:19:30;;;;;;;6.13;3.50;;;35.40;55.60;;;;;;4920330;29;20043;-92
2022/08/25 10:22:23;;;;;;;7.40;3.80;;;35.50;51.30;;;;;;4935967;29;20023;-93
2022/08/25 10:24:48;;;;;;;6.80;2.95;;;35.00;53.40;;;;;;4922217;28;20036;-90
2022/08/25 10:27:32;;;;;;;6.45;3.03;;;34.60;52.90;;;;;;4995973;28;20029;-84
2022/08/25 10:30:11;;;;;;;7.40;3.05;;;34.50;53.60;;;;;;4994687;28;20069;-87
2022/08/25 10:32:55;;;;;;;8.20;3.80;;;34.90;52.30;;;;;;4978673;28;20027;-85
2022/08/25 10:35:37;;;;;;;7.35;3.80;;;35.30;54.90;;;;;;4995935;28;20058;-96
2022/08/25 10:38:15;;;;;;;8.13;3.58;;;35.80;53.10;;;;;;4994714;28;20058;-83
2022/08/25 10:40:56;;;;;;;9.57;3.40;;;35.70;55.30;;;;;;4994218;28;20022;-88
2022/08/25 10:43:39;;;;;;;7.70;3.67;;;36.20;51.80;;;;;;4995269;28;20038;-82
2022/08/25 10:46:30;;;;;;;6.32;3.80;;;36.70;52.10;;;;;;4993927;28;20030;-84
2022/08/25 10:49:19;;;;;;;9.20;3.90;;;37.00;52.90;;;;;;4994038;28;20034;-91
2022/08/25 10:51:54;;;;;;;8.93;3.65;;;36.60;51.80;;;;;;4995860;28;20038;-83
2022/08/25 10:54:25;;;;;;;9.13;3.47;;;36.10;52.60;;;;;;4977806;28;20442;-82
2022/08/25 10:56:51;;;;;;;6.80;3.58;;;35.60;55.00;;;;;;4994955;28;20026;-82
2022/08/25 10:59:36;;;;;;;10.25;4.07;;;35.80;54.70;;;;;;4993500;28;20493;-91
2022/08/25 11:02:25;;;;;;;5.82;3.70;;;36.20;54.30;;;;;;4994835;28;20422;-86
2022/08/25 11:05:05;;;;;;;6.05;3.58;;;36.30;53.40;;;;;;4993528;28;20038;-81
2022/08/25 11:07:44;;;;;;;13.40;4.10;;;36.20;53.60;;;;;;4994359;28;20029;-80
2022/08/25 11:10:18;;;;;;;9.43;3.87;;;36.40;53.50;;;;;;4976946;28;20064;-81
2022/08/25 11:12:52;;;;;;;6.50;3.45;;;36.60;53.50;;;;;;4994294;28;20117;-86
2022/08/25 11:15:28;;;;;;;7.75;3.58;;;36.60;53.20;;;;;;4994091;28;20066;-83
2022/08/25 11:18:05;;;;;;;8.55;3.67;;;36.30;52.40;;;;;;4994211;28;20077;-89
2022/08/25 11:20:50;;;;;;;13.32;4.38;;;36.40;54.40;;;;;;4994107;28;20037;-83
2022/08/25 11:23:36;;;;;;;7.70;3.80;;;36.70;54.30;;;;;;4993417;28;20057;-84
2022/08/25 11:26:10;;;;;;;8.48;3.60;;;36.60;53.30;;;;;;4976722;28;20085;-82
2022/08/25 11:28:45;;;;;;;11.27;4.18;;;36.60;54.70;;;;;;4977048;28;20023;-80
2022/08/25 11:31:14;;;;;;;6.75;3.88;;;36.50;53.80;;;;;;4993905;28;20101;-83
2022/08/25 11:33:40;;;;;;;8.32;3.58;;;36.60;53.70;;;;;;4976270;28;20026;-80
2022/08/25 11:36:18;;;;;;;9.65;3.40;;;36.80;52.00;;;;;;4993809;28;20035;-83
2022/08/25 11:39:12;;;;;;;9.55;3.65;;;36.60;52.90;;;;;;4992867;28;20113;-82
2022/08/25 11:42:11;;;;;;;8.93;3.78;;;36.40;52.60;;;;;;4993927;28;20497;-84
2022/08/25 11:45:19;;;;;;;10.95;4.00;;;36.40;51.90;;;;;;4994090;28;20081;-82
2022/08/25 11:48:15;;;;;;;10.25;3.45;;;35.70;53.40;;;;;;4985630;28;20050;-89
2022/08/25 11:51:09;;;;;;;7.15;3.70;;;36.00;54.20;;;;;;4992815;28;20045;-89
2022/08/25 11:53:40;;;;;;;8.65;3.83;;;36.20;51.30;;;;;;4994954;28;20371;-84
2022/08/25 11:56:30;;;;;;;9.45;3.55;;;35.90;52.30;;;;;;4994312;28;20105;-82
2022/08/25 11:58:56;;;;;;;10.38;3.67;;;35.70;52.90;;;;;;4994316;28;20030;-84
2022/08/25 12:01:42;;;;;;;13.88;3.40;;;35.50;52.40;;;;;;4976885;28;20038;-86
2022/08/25 12:04:40;;;;;;;8.48;3.80;;;35.50;53.00;;;;;;4994097;28;20124;-82
2022/08/25 12:07:07;;;;;;;14.23;3.90;;;35.70;52.70;;;;;;4992732;28;20038;-82
2022/08/25 12:09:53;;;;;;;14.07;3.67;;;35.70;52.70;;;;;;4992952;28;20027;-92
2022/08/25 12:12:59;;;;;;;7.88;3.33;;;35.90;51.90;;;;;;4976639;28;20076;-83
2022/08/25 12:15:53;;;;;;;13.43;3.75;;;35.50;53.10;;;;;;4917818;29;20154;-81
2022/08/25 12:18:22;;;;;;;11.50;3.58;;;35.50;51.70;;;;;;4933536;29;20055;-84
2022/08/25 12:20:56;;;;;;;8.98;3.78;;;35.70;52.80;;;;;;4917888;29;20059;-92
2022/08/25 12:23:41;;;;;;;13.07;3.65;;;36.00;52.30;;;;;;4935472;29;20054;-85
2022/08/25 12:26:13;;;;;;;10.68;4.32;;;36.20;51.60;;;;;;4921610;29;20380;-81
2022/08/25 12:29:08;;;;;;;7.57;3.47;;;36.30;53.60;;;;;;4937589;29;20035;-90
2022/08/25 12:32:01;;;;;;;10.65;4.00;;;36.50;52.00;;;;;;4880844;29;20037;-82
2022/08/25 12:34:42;;;;;;;7.95;3.75;;;36.40;52.30;;;;;;4865130;29;20041;-81
2022/08/25 12:37:16;;;;;;;11.80;3.70;;;36.50;52.90;;;;;;4880526;29;20397;-87
2022/08/25 12:39:47;;;;;;;14.68;3.80;;;36.40;52.30;;;;;;4880882;29;20489;-80
2022/08/25 12:42:22;;;;;;;7.18;3.40;;;36.50;51.10;;;;;;4880631;29;20048;-83
2022/08/25 12:45:14;;;;;;;9.75;3.75;;;36.70;51.70;;;;;;4880459;29;20056;-83
2022/08/25 12:47:47;;;;;;;7.95;3.80;;;36.90;52.80;;;;;;4918308;29;20494;-82
2022/08/25 12:50:41;;;;;;;11.38;4.18;;;36.70;52.20;;;;;;4918362;29;20127;-85
2022/08/25 12:53:13;;;;;;;9.95;3.65;;;36.70;52.50;;;;;;4902048;29;20075;-86
2022/08/25 12:55:47;;;;;;;9.20;3.72;;;36.80;52.20;;;;;;4902464;29;20036;-85
2022/08/25 12:58:13;;;;;;;12.45;4.25;;;36.80;52.40;;;;;;4917968;29;20028;-84